Dixon, CA

9:13 PM PDT on September 17, 2014 (GMT -0700)
Travis Air Force Base | Change Station
CLOSE
Current Station
Airport
Location: Fairfield,
Elevation: 62 ft
Nearby Weather Stations

Elev 62 ft 38.27 °N, 121.95 °W | Updated 15 minutes ago

Clear
Clear
69 °F
Feels Like 69 °F
N
20
Wind Variable Wind from SW

Today
High -- | Low -- °F
--% Chance of Precip.
Yesterday
High -- | Low -- °F
Precip. -- in
6:50 AM 7:11 PM
Waning Crescent, 30% visible
Pressure 29.74 in
Visibility 10.0 miles
Clouds Clear
Dew Point 60 °F
Humidity 72%
Rainfall 0.00 in
Snow Depth 0 in , 1 in , 0 in
UV 0 out of 12
Pollen 6.20 out of 12
Ozone Good
PM2.5 Good
Flu Activity Not available.
METAR KSUU 180358Z AUTO 23017KT 10SM CLR 21/16 A2972 RMK AO2 PK WND 25029/23 SLP071 T02060155 $

More Conditions Fewer Conditions

Pressure 29.74 in
Visibility 10.0 miles
Clouds Clear
Dew Point 60 °F
Humidity 72%
Rainfall 0.00 in
Snow Depth 0 in , 1 in , 0 in
UV 0 out of 12
Pollen 6.20 out of 12
Ozone Good
PM2.5 Good
Flu Activity Not available.
METAR KSUU 180358Z AUTO 23017KT 10SM CLR 21/16 A2972 RMK AO2 PK WND 25029/23 SLP071 T02060155 $

More Conditions Fewer Conditions

10-Day Weather Forecast

Almanac

Astronomy

Sep. 17, 2014 Rise Set
Actual Time 6:50 AM PDT 7:11 PM PDT
Civil Twilight 6:24 AM PDT 7:38 PM PDT
Nautical Twilight 5:53 AM PDT 8:09 PM PDT
Astronomical Twilight 5:21 AM PDT 8:41 PM PDT
Moon 12:58 AM PDT (9/17) 3:22 PM PDT (9/17)
Length of Visible Light 13h 14m
Length of Day
12h 21m
Tomorrow will be 2m 28s shorter.
Waning Crescent, 30% of the Moon is Illuminated
Sep 18
Waning Crescent
Sep 24
New
Oct 1
First Quarter
Oct 8
Full
Oct 15
Last Quarter

Today's Extremes

State Highs State Lows

Community

WunderPhotos

Upload Photos

1,754,290 photos uploaded!

Nearby

Air Quality

  Air Quality AQ Index Pollutant
Yesterday Good
OZONE
Yesterday Good
PM2.5
Current Good
OZONE
Current Good
PM2.5
Wednesday Good
OZONE
Thursday Good
OZONE
Friday Good
OZONE
Saturday Good
OZONE
Sunday Good
OZONE
Monday Good
OZONE

Snow Depth

Station Depth Elevation
Echo Peak 0 in 7800 ft
Leavitt Meadows 1 in 7200 ft
Leavitt Lake 0 in 9400 ft
Spratt Creek 0 in 6200 ft
Hagan's Meadow 0 in 8000 ft

Earthquake Activity

City Distance Mag. Time & Date
Cobb, California 55 miles 2.7 1:23 PM PDT
2014-09-16
Minimum magnitude displayed is 2.5.

Coastal Water Temperatures

Place Temperature
San Francisco, CA 64.9 °F
Richmond, CA 68.0 °F
Port Chicago, CA 70.0 °F

Nearby Weather Stations